Latest Coastal Weather Observations for Cape Bruny AWS

IDT60701

Issued at 8:22 am EST Monday 29 May 2017 (issued every 10 minutes, with the page automatically refreshed every 10 minutes)

About coastal observations | Map of coastal stations | Coastal observations for TAS | Marine services | Other Formats
Station Details ID: 094198 Name: CAPE BRUNY (CAPE BRUNY) Lat: -43.49 Lon: 147.14 Height: 59.7 m
Data from the previous 72 hours. | See also: Recent months at Cape Bruny AWS
Date/Time
EST
Temp
°C
Wind Pressure Rain since
9am
mm
Weather Cloud Vis
km
Sea
Height
m
Swell
Dir  Spd
kts
Gust
kts
hPa Trend Height
m
Period
s
Dir
29/08:00am 8.6 W 17 21 1009.3 - 3.8 - - - - - - -
29/07:30am 8.3 W 19 24 1009.0 - 3.8 - - - - - - -
29/07:00am 8.2 W 13 17 1008.6 - 3.6 - - - - - - -
29/06:30am 7.9 W 17 21 1008.1 - 3.6 - - - - - - -
29/06:00am 8.4 W 20 24 1007.7 - 3.6 Recent precip. - - - - - -
29/05:30am 7.9 W 15 19 1007.5 - 3.6 - - - - - - -
29/05:00am 8.7 W 18 23 1007.1 - 3.4 - - - - - - -
29/04:30am 8.0 W 17 23 1006.8 - 3.4 - - - - - - -
29/04:00am 8.4 W 15 19 1006.8 - 3.4 - - - - - - -
29/03:30am 8.2 W 16 23 1006.5 - 3.4 - - - - - - -
29/03:00am 7.9 W 18 24 1006.4 - 3.4 Rain - - - - - -
29/02:30am 8.1 W 23 29 1006.3 - 3.2 - - - - - - -
29/02:00am 8.0 W 18 25 1006.1 - 3.2 - - - - - - -
29/01:30am 8.7 W 14 17 1005.9 - 3.0 - - - - - - -
29/01:00am 8.7 WNW 14 17 1005.8 - 3.0 - - - - - - -
29/12:30am 8.3 WNW 11 14 1005.7 - 3.0 - - - - - - -
29/12:00am 8.4 W 15 17 1005.5 - 3.0 - - - - - - -
 
Date/Time
EST
Temp
°C
Wind Pressure Rain since
9am
mm
Weather Cloud Vis
km
Sea
Height
m
Swell
Dir  Spd
kts
Gust
kts
hPa Trend Height
m
Period
s
Dir
28/11:30pm 8.6 W 16 20 1005.3 - 3.0 - - - - - - -
28/11:00pm 8.8 W 16 20 1005.4 - 3.0 - - - - - - -
28/10:30pm 8.5 WNW 13 17 1005.0 - 3.0 - - - - - - -
28/10:00pm 8.3 WNW 9 13 1005.1 - 3.0 - - - - - - -
28/09:30pm 8.6 W 10 14 1004.9 - 3.0 - - - - - - -
28/09:00pm 9.2 WNW 15 18 1004.6 - 3.0 - - - - - - -
28/08:30pm 8.9 WNW 12 17 1004.2 - 3.0 - - - - - - -
28/08:00pm 9.6 W 18 23 1004.0 - 3.0 - - - - - - -
28/07:30pm 9.6 W 21 27 1003.7 - 3.0 - - - - - - -
28/07:00pm 9.6 W 15 20 1003.3 - 3.0 - - - - - - -
28/06:30pm 9.4 W 19 25 1002.7 - 3.0 - - - - - - -
28/06:17pm 9.3 W 16 26 1002.5 - 3.0 - - - - - - -
28/06:00pm 9.4 W 14 18 1002.4 - 3.0 - - - - - - -
28/05:30pm 9.4 WSW 18 25 1002.0 - 3.0 - - - - - - -
28/05:00pm 9.5 W 15 18 1001.7 - 3.0 - - - - - - -
28/04:30pm 9.6 W 17 23 1001.5 - 3.0 - - - - - - -
28/04:00pm 9.8 W 18 23 1001.2 - 3.0 - - - - - - -
28/03:30pm 9.8 W 14 19 1000.8 - 2.8 - - - - - - -
28/03:06pm 9.7 W 15 23 1000.5 - 2.8 - - - - - - -
28/03:00pm 9.9 W 10 13 1000.4 - 2.8 Rain - - - - - -
28/02:30pm 9.4 WSW 11 14 1000.2 - 1.8 - - - - - - -
28/02:00pm 9.8 WSW 14 19 1000.1 - 1.0 - - - - - - -
28/01:30pm 10.3 WSW 18 26 999.8 - 0.0 - - - - - - -
28/01:16pm 11.2 WSW 12 25 999.7 - 0.0 - - - - - - -
28/01:00pm 11.4 W 11 14 999.7 - 0.0 - - - - - - -
28/12:30pm 11.2 WNW 12 16 999.5 - 0.0 - - - - - - -
28/12:00pm 11.3 WNW 14 17 999.4 - 0.0 - - - - - - -
28/11:30am 11.0 W 13 17 999.5 - 0.0 - - - - - - -
28/11:00am 10.8 NW 9 12 999.9 - 0.0 - - - - - - -
28/10:30am 10.4 NW 8 11 999.8 - 0.0 - - - - - - -
28/10:00am 10.7 N 6 7 999.9 - 0.0 - - - - - - -
28/09:30am 10.5 N 5 6 999.8 - 0.0 - - - - - - -
28/09:00am 10.1 NNW 8 11 999.8 - 3.6 - - - - - - -
28/08:30am 10.0 NW 10 13 999.6 - 3.6 - - - - - - -
28/08:00am 9.4 NNW 7 9 999.5 - 3.6 - - - - - - -
28/07:30am 10.0 NW 6 9 999.6 - 3.6 - - - - - - -
28/07:00am 10.2 NW 11 17 999.6 - 3.6 - - - - - - -
28/06:30am 9.5 N 7 9 999.5 - 3.6 - - - - - - -
28/06:00am 9.7 N 9 11 999.3 - 3.6 Recent precip. - - - - - -
28/05:30am 10.1 NNW 9 11 999.3 - 3.4 - - - - - - -
28/05:00am 10.1 NNW 9 12 999.1 - 3.2 - - - - - - -
28/04:30am 10.1 N 6 8 999.2 - 3.2 - - - - - - -
28/04:00am 10.3 NNW 3 5 999.4 - 3.2 - - - - - - -
28/03:30am 10.0 NNW 6 8 999.5 - 3.2 - - - - - - -
28/03:00am 10.2 N 8 10 999.8 - 3.2 - - - - - - -
28/02:30am 10.2 NNW 8 12 1000.2 - 3.2 - - - - - - -
28/02:00am 10.4 NNW 7 11 1000.8 - 3.2 - - - - - - -
28/01:30am 10.4 NNW 9 13 1001.2 - 3.0 - - - - - - -
28/01:00am 10.6 N 7 10 1001.2 - 2.4 - - - - - - -
28/12:30am 10.8 N 9 13 1002.1 - 2.4 - - - - - - -
28/12:00am 10.9 NNE 8 10 1002.6 - 2.4 Recent precip. - - - - - -
 
Date/Time
EST
Temp
°C
Wind Pressure Rain since
9am
mm
Weather Cloud Vis
km
Sea
Height
m
Swell
Dir  Spd
kts
Gust
kts
hPa Trend Height
m
Period
s
Dir
27/11:30pm 10.8 N 6 8 1002.8 - 2.4 - - - - - - -
27/11:00pm 10.7 N 6 9 1003.1 - 2.2 - - - - - - -
27/10:30pm 11.0 NW 10 14 1003.1 - 2.2 - - - - - - -
27/10:00pm 11.5 WNW 15 20 1003.7 - 1.2 - - - - - - -
27/09:30pm 12.5 W 10 16 1003.5 - 0.2 - - - - - - -
27/09:00pm 12.9 W 12 21 1003.5 - 0.2 - - - - - - -
27/08:52pm 14.1 NNW 8 21 1003.4 - 0.2 - - - - - - -
27/08:30pm 14.5 NNE 7 9 1003.1 - 0.2 - - - - - - -
27/08:00pm 14.7 N 10 15 1003.3 - 0.2 - - - - - - -
27/07:30pm 14.3 N 8 11 1003.7 - 0.2 - - - - - - -
27/07:00pm 14.2 NNW 9 12 1004.0 - 0.2 - - - - - - -
27/06:30pm 15.1 NNW 9 13 1003.9 - 0.0 - - - - - - -
27/06:00pm 15.2 NW 12 16 1004.0 - 0.0 - - - - - - -
27/05:30pm 15.3 NNW 16 25 1004.0 - 0.0 - - - - - - -
27/05:29pm 15.3 NNW 15 25 1004.0 - 0.0 - - - - - - -
27/05:00pm 14.7 N 9 15 1004.3 - 0.0 - - - - - - -
27/04:30pm 14.8 N 7 11 1004.3 - 0.0 - - - - - - -
27/04:00pm 14.6 NNE 8 12 1004.4 - 0.0 - - - - - - -
27/03:30pm 14.6 NNE 9 13 1004.3 - 0.0 - - - - - - -
27/03:00pm 14.3 NNE 8 13 1004.8 - 0.0 - - - - - - -
27/02:30pm 14.3 NE 7 11 1005.3 - 0.0 - - - - - - -
27/02:00pm 13.1 NE 5 7 1005.9 - 0.0 - - - - - - -
27/01:30pm 12.6 NE 5 8 1006.4 - 0.0 - - - - - - -
27/01:00pm 12.5 NNE 5 8 1007.0 - 0.0 - - - - - - -
27/12:30pm 12.3 NNE 6 9 1007.5 - 0.0 - - - - - - -
27/12:00pm 12.1 NNE 6 11 1008.0 - 0.0 - - - - - - -
27/11:30am 12.0 NNE 8 12 1008.7 - 0.0 - - - - - - -
27/11:00am 11.6 NNE 9 14 1009.2 - 0.0 - - - - - - -
27/10:30am 11.2 NNE 11 16 1009.5 - 0.0 - - - - - - -
27/10:00am 11.1 NE 7 11 1010.0 - 0.0 - - - - - - -
27/09:30am 10.5 NE 9 14 1010.2 - 0.0 - - - - - - -
27/09:00am 10.1 NE 7 12 1010.6 - 0.0 - - - - - - -
27/08:30am 9.0 ENE 6 8 1011.0 - 0.0 - - - - - - -
27/08:00am 8.7 NE 8 11 1011.3 - 0.0 - - - - - - -
27/07:30am 8.1 NE 7 9 1011.6 - 0.0 - - - - - - -
27/07:00am 7.8 NE 7 9 1011.9 - 0.0 - - - - - - -
27/06:30am 7.1 ENE 6 8 1012.1 - 0.0 - - - - - - -
27/06:00am 8.6 N 10 18 1012.7 - 0.0 - - - - - - -
27/05:30am 7.5 N 9 12 1012.9 - 0.0 - - - - - - -
27/05:00am 7.7 N 11 14 1012.9 - 0.0 - - - - - - -
27/04:30am 7.1 N 9 13 1013.3 - 0.0 - - - - - - -
27/04:00am 7.3 N 7 11 1013.7 - 0.0 - - - - - - -
27/03:30am 7.1 N 7 9 1013.9 - 0.0 - - - - - - -
27/03:00am 7.4 NE 5 7 1013.9 - 0.0 - - - - - - -
27/02:30am 7.8 NNE 5 8 1014.1 - 0.0 - - - - - - -
27/02:00am 7.6 N 5 10 1014.2 - 0.0 - - - - - - -
27/01:30am 8.0 N 6 11 1014.3 - 0.0 - - - - - - -
27/01:00am 7.7 NNE 6 7 1014.7 - 0.0 - - - - - - -
27/12:30am 8.0 NNE 7 9 1015.3 - 0.0 - - - - - - -
27/12:00am 8.7 N 8 11 1015.8 - 0.0 - - - - - - -
 
Date/Time
EST
Temp
°C
Wind Pressure Rain since
9am
mm
Weather Cloud Vis
km
Sea
Height
m
Swell
Dir  Spd
kts
Gust
kts
hPa Trend Height
m
Period
s
Dir
26/11:30pm 8.8 NNW 10 13 1016.1 - 0.0 - - - - - - -
26/11:00pm 8.5 N 6 11 1016.3 - 0.0 - - - - - - -
26/10:30pm 9.3 NNW 8 13 1016.5 - 0.0 - - - - - - -
26/10:00pm 9.6 NNW 10 13 1016.7 - 0.0 - - - - - - -
26/09:30pm 9.8 NW 11 15 1016.7 - 0.0 - - - - - - -
26/09:00pm 9.4 NNW 9 14 1016.9 - 0.0 - - - - - - -
26/08:30pm 9.5 NNW 8 10 1017.0 - 0.0 - - - - - - -
26/08:00pm 9.4 N 7 10 1017.2 - 0.0 - - - - - - -
26/07:30pm 8.4 N 7 9 1017.1 - 0.0 - - - - - - -
26/07:00pm 9.0 N 9 10 1017.2 - 0.0 - - - - - - -
26/06:30pm 9.5 NNW 7 9 1017.1 - 0.0 - - - - - - -
26/06:00pm 9.2 N 7 9 1017.0 - 0.0 - - - - - - -
26/05:30pm 11.0 NW 14 18 1016.6 - 0.0 - - - - - - -
26/05:25pm 10.8 NW 12 18 1016.6 - 0.0 - - - - - - -
26/05:00pm 10.0 NNW 7 8 1016.5 - 0.0 - - - - - - -
26/04:30pm 11.5 WNW 15 19 1016.3 - 0.0 - - - - - - -
26/04:00pm 11.8 WNW 12 19 1016.2 - 0.0 - - - - - - -
26/03:30pm 12.0 WNW 19 23 1016.4 - 0.0 - - - - - - -
26/03:00pm 12.5 NW 12 19 1016.4 - 0.0 - - - - - - -
26/02:30pm 12.4 NW 13 17 1016.4 - 0.0 - - - - - - -
26/02:00pm 13.5 WNW 15 19 1016.3 - 0.0 - - - - - - -
26/01:30pm 13.1 WNW 15 21 1016.4 - 0.0 - - - - - - -
26/01:00pm 12.2 WNW 17 25 1016.4 - 0.0 - - - - - - -
26/12:30pm 13.2 NW 15 21 1016.5 - 0.0 - - - - - - -
26/12:00pm 12.6 NW 14 19 1016.8 - 0.0 - - - - - - -
26/11:30am 12.6 WNW 15 20 1017.0 - 0.0 - - - - - - -
26/11:00am 12.2 WNW 15 21 1017.2 - 0.0 - - - - - - -
26/10:30am 11.9 NW 16 22 1017.0 - 0.0 - - - - - - -
26/10:00am 11.3 NW 16 21 1017.0 - 0.0 - - - - - - -
26/09:30am 11.5 NW 11 16 1016.9 - 0.0 - - - - - - -
26/09:00am 10.5 NW 13 18 1016.7 - 1.0 - - - - - - -
26/08:30am 10.3 NW 14 20 1016.4 - 1.0 - - - - - - -

Other Formats:

Comma delimited format used in spreadsheet applications
http://www.bom.gov.au/fwo/IDT60701/IDT60701.95967.axf

JavaScript Object Notation format (JSON) in row-major order
http://www.bom.gov.au/fwo/IDT60701/IDT60701.95967.json